Weather at Comodoro Arturo Merino Benítez International Airport

Public forecast

Using degrees Celsius for public forecast. Weather courtesy of forecast.io.

Current aviation weather report (METAR) for Comodoro Arturo Merino Benítez International Airport

Retrieved 2021/09/27 06:00 UTC (55 minutes ago):

SCEL 270600Z AUTO VRB01KT 9999 NCD 11/07 Q1018

Aviation forecast (TAF) for Comodoro Arturo Merino Benítez International Airport

Retrieved 2021/09/27 06:00 UTC (55 minutes ago):

TAF SCEL 270400Z 2706/2806 15006KT CAVOK TX26/2718Z TN07/2710Z TEMPO 2708/2712 6000 NSC BECMG 2716/2718 20012KT BECMG 2802/2804 16004KT